Time;durP1;ratioP1;P1;durP2;ratioP2;P2;SDS_P1;SDS_P2;PMS_P1;PMS_P2;Temp;Humidity;BMP_temperature;BMP_pressure;BME280_temperature;BME280_humidity;BME280_pressure;Samples;Min_cycle;Max_cycle;Signal;HPM_P1;HPM_P2
2021/03/20 00:01:00;;;;;;;10.10;4.25;;;2.00;81.90;;;;;;5024298;28;20462;-52
2021/03/20 00:03:26;;;;;;;6.97;4.30;;;2.00;82.20;;;;;;5026646;28;20045;-54
2021/03/20 00:05:53;;;;;;;7.57;4.10;;;2.10;82.20;;;;;;5038006;28;20029;-53
2021/03/20 00:08:24;;;;;;;9.25;4.20;;;2.10;81.80;;;;;;5026859;28;20151;-51
2021/03/20 00:10:50;;;;;;;8.15;4.50;;;2.10;81.60;;;;;;5025406;28;20448;-53
2021/03/20 00:13:18;;;;;;;5.35;3.80;;;2.10;81.70;;;;;;5030769;28;20072;-53
2021/03/20 00:15:45;;;;;;;8.15;4.00;;;2.10;81.50;;;;;;4997774;28;20039;-52
2021/03/20 00:18:11;;;;;;;9.13;4.30;;;2.00;81.70;;;;;;5010465;28;20037;-54
2021/03/20 00:20:41;;;;;;;7.57;4.32;;;2.00;81.70;;;;;;5030150;28;20051;-54
2021/03/20 00:23:07;;;;;;;7.53;4.40;;;2.00;81.90;;;;;;5020419;28;20104;-51
2021/03/20 00:25:34;;;;;;;6.70;4.22;;;2.00;81.80;;;;;;5018825;28;20506;-53
2021/03/20 00:28:01;;;;;;;8.00;4.15;;;2.00;81.70;;;;;;5017387;28;20044;-54
2021/03/20 00:30:28;;;;;;;9.05;4.45;;;1.90;81.90;;;;;;5026124;28;20487;-51
2021/03/20 00:32:53;;;;;;;9.30;4.40;;;2.00;81.40;;;;;;5025922;28;20546;-54
2021/03/20 00:35:22;;;;;;;6.43;4.30;;;1.90;81.60;;;;;;5012978;28;20140;-50
2021/03/20 00:37:49;;;;;;;7.65;4.07;;;1.90;81.90;;;;;;5020010;28;20525;-54
2021/03/20 00:40:19;;;;;;;7.75;4.30;;;1.90;81.90;;;;;;5027533;28;20072;-51
2021/03/20 00:42:45;;;;;;;6.85;4.03;;;1.90;82.10;;;;;;5024437;28;20524;-53
2021/03/20 00:45:13;;;;;;;9.30;4.10;;;1.90;81.30;;;;;;5018351;28;20029;-51
2021/03/20 00:47:39;;;;;;;9.98;4.40;;;1.90;81.80;;;;;;5030263;28;20046;-52
2021/03/20 00:50:07;;;;;;;8.02;4.28;;;1.90;82.00;;;;;;5017100;28;20042;-52
2021/03/20 00:52:32;;;;;;;9.93;4.15;;;1.80;82.10;;;;;;5024651;28;20405;-53
2021/03/20 00:54:58;;;;;;;9.80;4.55;;;1.80;81.90;;;;;;5031071;28;20128;-51
2021/03/20 00:57:24;;;;;;;6.57;4.10;;;1.70;82.10;;;;;;5031220;28;20045;-53
2021/03/20 00:59:50;;;;;;;10.88;4.55;;;1.60;82.20;;;;;;5043341;28;20041;-51
2021/03/20 01:02:16;;;;;;;7.18;4.15;;;1.50;82.60;;;;;;5028150;28;20102;-53
2021/03/20 01:04:41;;;;;;;9.10;4.40;;;1.50;82.90;;;;;;5029376;28;20068;-53
2021/03/20 01:07:07;;;;;;;8.05;4.15;;;1.40;82.80;;;;;;5018551;28;20053;-51
2021/03/20 01:09:34;;;;;;;7.78;4.30;;;1.40;83.30;;;;;;5030059;28;20057;-50
2021/03/20 01:12:00;;;;;;;10.63;4.78;;;1.40;83.00;;;;;;5018249;28;20071;-53
2021/03/20 01:14:26;;;;;;;7.88;4.20;;;1.40;83.30;;;;;;5030822;28;20087;-53
2021/03/20 01:16:53;;;;;;;7.07;4.15;;;1.40;83.70;;;;;;5012825;28;20049;-51
2021/03/20 01:19:19;;;;;;;9.10;4.82;;;1.40;83.50;;;;;;5028408;28;20029;-51
2021/03/20 01:21:45;;;;;;;8.68;4.88;;;1.30;83.40;;;;;;5023836;28;20065;-53
2021/03/20 01:24:11;;;;;;;9.35;4.43;;;1.20;83.80;;;;;;5026596;28;20502;-52
2021/03/20 01:26:37;;;;;;;8.30;4.50;;;1.20;83.80;;;;;;5012108;28;20037;-50
2021/03/20 01:29:03;;;;;;;6.93;4.40;;;1.10;83.80;;;;;;4995164;28;20041;-51
2021/03/20 01:31:29;;;;;;;7.90;4.72;;;1.10;84.10;;;;;;5017383;28;20097;-53
2021/03/20 01:33:55;;;;;;;7.55;4.68;;;1.00;84.20;;;;;;5031066;28;20414;-50
2021/03/20 01:36:21;;;;;;;10.25;4.78;;;1.00;84.50;;;;;;5005608;28;20038;-53
2021/03/20 01:38:49;;;;;;;8.30;5.07;;;1.00;85.00;;;;;;5024069;28;20551;-50
2021/03/20 01:41:19;;;;;;;11.57;4.75;;;1.00;84.80;;;;;;5027555;28;20042;-51
2021/03/20 01:43:46;;;;;;;10.48;5.03;;;1.00;84.60;;;;;;4994612;28;20590;-52
2021/03/20 01:46:49;;;;;;;10.15;5.22;;;0.90;84.90;;;;;;5017187;28;20386;-50
2021/03/20 01:49:38;;;;;;;9.85;5.30;;;0.90;85.00;;;;;;5023171;28;20041;-49
2021/03/20 01:52:12;;;;;;;9.05;4.78;;;0.90;85.10;;;;;;5025434;28;20047;-50
2021/03/20 01:55:14;;;;;;;8.63;5.05;;;0.90;85.00;;;;;;5026151;28;20030;-51
2021/03/20 01:57:42;;;;;;;8.52;4.68;;;0.80;85.00;;;;;;4985866;28;517341;-54
2021/03/20 02:00:19;;;;;;;9.68;4.95;;;0.80;85.40;;;;;;5032247;28;20399;-51
2021/03/20 02:02:45;;;;;;;9.10;4.93;;;0.80;85.50;;;;;;5022810;28;20485;-49
2021/03/20 02:05:19;;;;;;;12.60;4.78;;;0.80;85.50;;;;;;5028077;28;20068;-49
2021/03/20 02:07:45;;;;;;;9.05;5.20;;;0.80;85.30;;;;;;5026085;28;20120;-49
2021/03/20 02:10:13;;;;;;;10.48;4.80;;;0.80;85.70;;;;;;5029764;28;20095;-50
2021/03/20 02:12:41;;;;;;;9.68;5.55;;;0.80;85.70;;;;;;4995953;28;20038;-52
2021/03/20 02:15:23;;;;;;;9.27;5.68;;;0.80;85.60;;;;;;5036064;28;20112;-50
2021/03/20 02:17:59;;;;;;;12.02;5.28;;;0.80;85.60;;;;;;5018289;28;20041;-52
2021/03/20 02:20:48;;;;;;;7.50;4.32;;;0.70;85.40;;;;;;5016581;28;20038;-52
2021/03/20 02:23:32;;;;;;;6.85;4.15;;;0.60;85.00;;;;;;5025027;28;20354;-53
2021/03/20 02:26:34;;;;;;;7.63;4.05;;;0.50;85.20;;;;;;5026019;28;20175;-53
2021/03/20 02:29:18;;;;;;;8.67;4.80;;;0.40;85.40;;;;;;5027106;28;20033;-50
2021/03/20 02:32:18;;;;;;;8.82;4.57;;;0.30;85.80;;;;;;5018040;28;20045;-52
2021/03/20 02:35:08;;;;;;;7.15;3.90;;;0.20;86.10;;;;;;5029081;28;20105;-52
2021/03/20 02:37:57;;;;;;;9.27;4.25;;;0.20;86.00;;;;;;5011258;28;20048;-50
2021/03/20 02:40:42;;;;;;;8.18;4.57;;;0.10;85.70;;;;;;5019668;28;20520;-51
2021/03/20 02:43:19;;;;;;;9.07;4.78;;;0.00;86.00;;;;;;5023748;28;20044;-52
2021/03/20 02:46:09;;;;;;;7.25;4.40;;;0.00;86.20;;;;;;5029649;28;20041;-53
2021/03/20 02:48:35;;;;;;;8.30;4.55;;;0.00;86.30;;;;;;5029846;28;20049;-52
2021/03/20 02:51:06;;;;;;;7.68;4.72;;;-0.10;86.30;;;;;;4983426;28;20435;-53
2021/03/20 02:53:56;;;;;;;8.07;4.65;;;-0.10;86.40;;;;;;5030652;28;20417;-51
2021/03/20 02:56:27;;;;;;;9.27;5.00;;;-0.10;86.70;;;;;;5006646;28;20038;-52
2021/03/20 02:58:59;;;;;;;10.10;5.18;;;-0.10;86.80;;;;;;5028491;28;20037;-50
2021/03/20 03:01:26;;;;;;;7.75;4.85;;;0.00;86.90;;;;;;5017852;28;20116;-52
2021/03/20 03:03:53;;;;;;;7.88;4.75;;;-0.10;86.90;;;;;;5016818;28;20050;-53
2021/03/20 03:06:34;;;;;;;8.85;5.03;;;-0.10;86.90;;;;;;5017057;28;20042;-52
2021/03/20 03:09:06;;;;;;;7.97;4.50;;;-0.20;87.00;;;;;;5014823;28;20096;-52
2021/03/20 03:11:47;;;;;;;7.57;4.38;;;-0.10;87.00;;;;;;5023504;28;20042;-51
2021/03/20 03:14:32;;;;;;;10.25;4.80;;;-0.10;87.10;;;;;;5025505;28;20048;-51
2021/03/20 03:17:00;;;;;;;8.38;4.85;;;-0.20;87.00;;;;;;5026071;28;20123;-52
2021/03/20 03:19:41;;;;;;;7.72;4.75;;;-0.20;86.90;;;;;;5030499;28;20042;-49
2021/03/20 03:22:16;;;;;;;8.32;5.07;;;-0.20;86.90;;;;;;5029608;28;20046;-50
2021/03/20 03:24:43;;;;;;;12.60;5.55;;;-0.20;87.20;;;;;;5026105;28;20498;-50
2021/03/20 03:27:13;;;;;;;8.52;5.10;;;-0.30;87.30;;;;;;5036179;28;20040;-49
2021/03/20 03:29:40;;;;;;;11.07;5.30;;;-0.30;87.30;;;;;;5019458;28;20367;-49
2021/03/20 03:32:14;;;;;;;10.10;5.20;;;-0.30;87.30;;;;;;5030538;28;20045;-49
2021/03/20 03:34:43;;;;;;;9.40;4.75;;;-0.20;87.30;;;;;;5026365;28;20437;-52
2021/03/20 03:37:48;;;;;;;7.97;4.80;;;-0.30;87.50;;;;;;5025488;28;20037;-50
2021/03/20 03:40:21;;;;;;;9.23;4.78;;;-0.30;87.20;;;;;;5027052;28;20510;-49
2021/03/20 03:42:51;;;;;;;9.95;5.13;;;-0.30;87.40;;;;;;5032463;28;20422;-52
2021/03/20 03:45:19;;;;;;;9.23;5.15;;;-0.30;87.80;;;;;;5030179;28;20501;-51
2021/03/20 03:47:47;;;;;;;9.07;5.00;;;-0.40;87.10;;;;;;5026466;28;20046;-50
2021/03/20 03:50:27;;;;;;;8.60;4.75;;;-0.40;87.30;;;;;;5026646;28;20053;-52
2021/03/20 03:52:53;;;;;;;11.00;5.20;;;-0.40;87.30;;;;;;5020947;28;20437;-49
2021/03/20 03:55:19;;;;;;;10.75;4.80;;;-0.40;87.30;;;;;;5017001;28;20041;-52
2021/03/20 03:57:47;;;;;;;9.27;5.70;;;-0.40;87.70;;;;;;5031102;28;20041;-51
2021/03/20 04:00:39;;;;;;;9.60;5.15;;;-0.30;87.80;;;;;;5026613;28;20075;-49
2021/03/20 04:03:07;;;;;;;9.38;5.03;;;-0.40;87.70;;;;;;5019389;28;20409;-52
2021/03/20 04:05:53;;;;;;;9.45;5.50;;;-0.40;87.80;;;;;;5032546;28;20037;-49
2021/03/20 04:08:49;;;;;;;9.55;5.30;;;-0.40;87.90;;;;;;5032377;28;20037;-50
2021/03/20 04:11:25;;;;;;;10.25;5.25;;;-0.30;87.90;;;;;;5014424;28;20042;-52
2021/03/20 04:14:23;;;;;;;10.73;5.55;;;-0.30;87.90;;;;;;5038048;28;20040;-51
2021/03/20 04:16:59;;;;;;;10.23;5.65;;;-0.30;87.90;;;;;;4973406;28;20140;-53
2021/03/20 04:20:05;;;;;;;9.35;5.35;;;-0.30;88.10;;;;;;5015585;28;20068;-49
2021/03/20 04:22:55;;;;;;;9.30;4.82;;;-0.30;88.00;;;;;;4933841;29;20099;-54
2021/03/20 04:25:50;;;;;;;10.45;5.57;;;-0.40;88.10;;;;;;4932489;29;20135;-50
2021/03/20 04:28:38;;;;;;;8.55;5.30;;;-0.30;88.20;;;;;;5005580;28;20520;-50
2021/03/20 04:31:15;;;;;;;8.70;5.38;;;-0.30;88.00;;;;;;5030787;28;20053;-51
2021/03/20 04:34:03;;;;;;;11.43;5.43;;;-0.30;88.00;;;;;;5030669;28;20061;-49
2021/03/20 04:37:00;;;;;;;9.15;5.40;;;-0.30;87.80;;;;;;5011208;28;20073;-50
2021/03/20 04:39:29;;;;;;;9.45;5.28;;;-0.30;88.10;;;;;;5015730;28;20123;-52
2021/03/20 04:41:56;;;;;;;8.55;4.97;;;-0.40;87.60;;;;;;5020397;28;20100;-49
2021/03/20 04:44:22;;;;;;;10.38;5.13;;;-0.40;87.50;;;;;;5015072;28;20045;-51
2021/03/20 04:46:48;;;;;;;9.52;4.95;;;-0.50;87.50;;;;;;5025332;28;20138;-53
2021/03/20 04:49:39;;;;;;;9.85;5.50;;;-0.60;87.60;;;;;;5030097;28;20033;-51
2021/03/20 04:52:15;;;;;;;9.80;4.97;;;-0.60;87.90;;;;;;5028578;28;20497;-49
2021/03/20 04:54:41;;;;;;;9.60;5.10;;;-0.70;87.80;;;;;;5021967;28;20046;-50
2021/03/20 04:57:19;;;;;;;9.27;4.95;;;-0.70;87.80;;;;;;5026463;28;20040;-51
2021/03/20 05:00:01;;;;;;;9.07;5.03;;;-0.70;88.00;;;;;;5028598;28;20041;-50
2021/03/20 05:02:35;;;;;;;9.18;5.10;;;-0.70;88.10;;;;;;5029006;28;20414;-48
2021/03/20 05:05:12;;;;;;;10.55;5.38;;;-0.80;88.00;;;;;;5026332;28;20082;-53
2021/03/20 05:07:38;;;;;;;10.95;5.40;;;-0.80;88.10;;;;;;5026211;28;20044;-52
2021/03/20 05:10:15;;;;;;;10.30;5.60;;;-0.80;88.20;;;;;;5028575;28;20137;-52
2021/03/20 05:12:41;;;;;;;9.52;4.72;;;-0.80;88.30;;;;;;5014180;28;20124;-50
2021/03/20 05:15:28;;;;;;;9.98;5.47;;;-0.90;88.20;;;;;;5023318;28;20077;-50
2021/03/20 05:17:54;;;;;;;9.55;4.78;;;-0.90;88.60;;;;;;5026357;28;20064;-51
2021/03/20 05:20:20;;;;;;;9.70;5.13;;;-1.00;88.70;;;;;;5023015;28;20058;-51
2021/03/20 05:22:47;;;;;;;10.82;5.30;;;-1.00;88.70;;;;;;5016741;28;20037;-50
2021/03/20 05:25:15;;;;;;;10.73;4.85;;;-1.00;88.50;;;;;;5012857;28;20037;-52
2021/03/20 05:27:42;;;;;;;9.77;5.10;;;-1.10;88.60;;;;;;5024705;28;20059;-49
2021/03/20 05:30:08;;;;;;;9.05;4.95;;;-1.10;88.50;;;;;;5018504;28;20038;-50
2021/03/20 05:32:35;;;;;;;9.38;5.20;;;-1.10;88.50;;;;;;5030405;28;20400;-51
2021/03/20 05:35:03;;;;;;;11.60;5.28;;;-1.10;88.90;;;;;;5029997;28;20049;-51
2021/03/20 05:37:35;;;;;;;9.60;5.55;;;-1.10;88.90;;;;;;5030166;28;20049;-50
2021/03/20 05:40:02;;;;;;;11.18;5.47;;;-1.20;88.90;;;;;;5028088;28;20041;-51
2021/03/20 05:42:41;;;;;;;9.38;5.25;;;-1.20;89.00;;;;;;5030214;28;20045;-50
2021/03/20 05:45:36;;;;;;;10.40;5.10;;;-1.20;89.30;;;;;;5030393;28;20459;-51
2021/03/20 05:48:27;;;;;;;9.80;5.45;;;-1.10;89.10;;;;;;5019639;28;20494;-51
2021/03/20 05:51:22;;;;;;;8.50;5.13;;;-1.10;89.10;;;;;;5030603;28;20053;-51
2021/03/20 05:54:09;;;;;;;11.68;6.03;;;-1.10;88.80;;;;;;4973719;28;20171;-52
2021/03/20 05:56:54;;;;;;;9.48;5.35;;;-1.10;88.80;;;;;;5018591;28;20386;-51
2021/03/20 05:59:40;;;;;;;10.52;5.90;;;-1.10;88.80;;;;;;5020289;28;20105;-52
2021/03/20 06:02:21;;;;;;;10.32;5.25;;;-1.10;89.00;;;;;;5026037;28;20092;-52
2021/03/20 06:04:56;;;;;;;8.48;5.15;;;-1.10;89.40;;;;;;5015116;28;20046;-49
2021/03/20 06:07:45;;;;;;;11.90;5.50;;;-1.10;89.20;;;;;;5015966;28;20113;-51
2021/03/20 06:10:31;;;;;;;9.10;5.40;;;-1.10;89.00;;;;;;5016973;28;20046;-50
2021/03/20 06:13:29;;;;;;;13.48;6.13;;;-1.10;89.00;;;;;;5024924;28;20068;-50
2021/03/20 06:16:21;;;;;;;11.75;5.75;;;-1.10;88.80;;;;;;4996747;28;20050;-49
2021/03/20 06:19:33;;;;;;;9.98;6.10;;;-1.10;88.70;;;;;;5026992;28;20096;-49
2021/03/20 06:22:22;;;;;;;9.82;5.68;;;-1.10;89.30;;;;;;5025846;28;20045;-51
2021/03/20 06:25:23;;;;;;;12.38;5.93;;;-1.00;89.20;;;;;;5028008;28;20041;-53
2021/03/20 06:27:52;;;;;;;11.88;6.20;;;-1.00;89.00;;;;;;5017337;28;20473;-52
2021/03/20 06:30:30;;;;;;;10.98;6.07;;;-0.90;89.00;;;;;;5024046;28;20034;-52
2021/03/20 06:33:02;;;;;;;12.25;6.35;;;-0.90;88.90;;;;;;5022437;28;20075;-52
2021/03/20 06:35:47;;;;;;;10.23;6.40;;;-0.80;89.00;;;;;;5020536;28;20514;-49
2021/03/20 06:38:30;;;;;;;9.90;6.07;;;-0.70;89.10;;;;;;5010673;28;20038;-49
2021/03/20 06:41:06;;;;;;;11.75;6.75;;;-0.60;89.30;;;;;;5019718;28;20650;-51
2021/03/20 06:43:38;;;;;;;10.48;6.70;;;-0.50;89.00;;;;;;5019825;28;20037;-51
2021/03/20 06:46:04;;;;;;;11.63;6.40;;;-0.40;89.30;;;;;;5020516;28;20042;-49
2021/03/20 06:48:32;;;;;;;12.32;6.57;;;-0.40;89.40;;;;;;5030056;28;20525;-50
2021/03/20 06:51:00;;;;;;;11.45;6.82;;;-0.30;89.00;;;;;;5022911;28;20049;-52
2021/03/20 06:53:43;;;;;;;11.68;7.03;;;-0.30;89.00;;;;;;5007206;28;20072;-51
2021/03/20 06:56:12;;;;;;;12.23;6.88;;;-0.20;89.20;;;;;;5027094;28;20040;-53
2021/03/20 06:58:40;;;;;;;11.23;6.95;;;-0.20;89.80;;;;;;5020389;28;20045;-52
2021/03/20 07:01:23;;;;;;;11.88;7.40;;;-0.10;89.90;;;;;;5024568;28;20128;-48
2021/03/20 07:04:13;;;;;;;12.30;7.78;;;0.00;90.00;;;;;;5028644;28;20417;-51
2021/03/20 07:07:03;;;;;;;13.60;7.45;;;0.10;89.80;;;;;;5021175;28;20037;-54
2021/03/20 07:09:31;;;;;;;13.93;7.60;;;0.20;90.00;;;;;;5025166;28;20046;-50
2021/03/20 07:12:19;;;;;;;13.65;8.02;;;0.30;90.00;;;;;;5020024;28;20048;-54
2021/03/20 07:14:53;;;;;;;15.20;8.48;;;0.40;90.00;;;;;;5023844;28;20399;-50
2021/03/20 07:17:26;;;;;;;11.82;8.02;;;0.50;89.80;;;;;;5024233;28;20046;-53
2021/03/20 07:19:56;;;;;;;16.42;8.70;;;0.60;89.90;;;;;;5020402;28;20038;-51
2021/03/20 07:22:29;;;;;;;19.08;9.80;;;0.60;90.00;;;;;;5021754;28;20041;-50
2021/03/20 07:24:55;;;;;;;17.63;10.02;;;0.70;89.80;;;;;;5024693;28;20112;-51
2021/03/20 07:27:29;;;;;;;15.68;9.27;;;0.80;90.10;;;;;;5026954;28;20120;-50
2021/03/20 07:30:27;;;;;;;11.57;7.63;;;0.90;90.20;;;;;;5021395;28;20042;-53
2021/03/20 07:32:53;;;;;;;13.27;7.78;;;0.90;90.20;;;;;;5022071;28;20053;-51
2021/03/20 07:35:19;;;;;;;12.77;8.13;;;1.00;90.00;;;;;;5006022;28;20521;-51
2021/03/20 07:37:46;;;;;;;13.75;8.23;;;1.10;90.00;;;;;;5017607;28;20038;-50
2021/03/20 07:40:14;;;;;;;12.13;8.15;;;1.20;89.60;;;;;;5021633;28;20129;-51
2021/03/20 07:42:41;;;;;;;13.98;7.95;;;1.20;89.80;;;;;;5021959;28;20036;-51
2021/03/20 07:45:18;;;;;;;13.07;7.72;;;1.30;89.90;;;;;;5029465;28;20049;-52
2021/03/20 07:48:00;;;;;;;15.50;7.78;;;1.40;89.70;;;;;;5030349;28;20405;-51
2021/03/20 07:50:32;;;;;;;11.70;6.90;;;1.60;90.00;;;;;;5030930;28;20095;-49
2021/03/20 07:53:15;;;;;;;12.30;8.20;;;1.70;89.40;;;;;;5028708;28;20042;-50
2021/03/20 07:56:26;;;;;;;11.80;7.13;;;1.80;88.80;;;;;;5021820;28;20120;-48
2021/03/20 07:59:05;;;;;;;13.02;7.18;;;1.90;88.60;;;;;;5030262;28;20041;-52
2021/03/20 08:01:36;;;;;;;11.70;6.93;;;2.10;88.20;;;;;;5019189;28;20048;-51
2021/03/20 08:04:08;;;;;;;14.70;7.00;;;2.20;87.90;;;;;;5020343;28;20056;-52
2021/03/20 08:06:42;;;;;;;11.35;7.03;;;2.40;87.50;;;;;;5022773;28;20320;-49
2021/03/20 08:09:28;;;;;;;11.95;6.60;;;2.50;87.10;;;;;;5017626;28;20086;-53
2021/03/20 08:11:59;;;;;;;11.38;6.55;;;2.60;86.60;;;;;;5031665;28;20049;-49
2021/03/20 08:14:53;;;;;;;10.30;6.32;;;2.80;86.00;;;;;;5028583;28;20045;-49
2021/03/20 08:17:21;;;;;;;11.90;7.03;;;2.90;83.40;;;;;;5017992;28;20908;-50
2021/03/20 08:19:48;;;;;;;10.20;7.07;;;3.00;84.50;;;;;;5031907;28;20493;-51
2021/03/20 08:22:47;;;;;;;10.38;6.72;;;3.10;84.20;;;;;;5021745;28;20494;-54
2021/03/20 08:25:30;;;;;;;10.45;6.47;;;3.20;82.20;;;;;;5026902;28;20044;-50
2021/03/20 08:28:17;;;;;;;12.32;6.88;;;3.40;81.80;;;;;;5024450;28;20044;-50
2021/03/20 08:31:04;;;;;;;12.52;6.82;;;3.50;82.40;;;;;;5032205;28;20037;-50
2021/03/20 08:34:12;;;;;;;10.27;6.38;;;3.70;82.00;;;;;;5006401;28;20057;-49
2021/03/20 08:36:56;;;;;;;15.02;7.00;;;3.70;79.90;;;;;;4996712;28;20056;-52
2021/03/20 08:39:36;;;;;;;12.50;7.43;;;3.80;81.40;;;;;;5018447;28;20033;-51
2021/03/20 08:42:26;;;;;;;10.45;6.57;;;4.00;80.50;;;;;;5005616;28;20054;-51
2021/03/20 08:45:22;;;;;;;13.88;6.50;;;4.10;80.80;;;;;;5012377;28;20037;-52
2021/03/20 08:48:25;;;;;;;13.02;6.97;;;4.30;80.40;;;;;;5013073;28;20569;-49
2021/03/20 08:51:17;;;;;;;11.57;6.65;;;4.40;79.00;;;;;;5006083;28;20385;-50
2021/03/20 08:54:22;;;;;;;9.20;6.97;;;4.40;79.00;;;;;;5011370;28;20069;-49
2021/03/20 08:56:56;;;;;;;10.90;6.80;;;4.50;78.10;;;;;;4980626;28;20049;-49
2021/03/20 08:59:31;;;;;;;12.70;7.57;;;4.60;78.70;;;;;;5031134;28;20128;-52
2021/03/20 09:02:01;;;;;;;12.77;7.03;;;4.70;78.30;;;;;;5029592;28;20056;-52
2021/03/20 09:04:31;;;;;;;9.35;6.57;;;4.80;78.60;;;;;;5020420;28;20071;-52
2021/03/20 09:06:59;;;;;;;12.88;6.95;;;4.90;78.20;;;;;;5029539;28;20047;-53
2021/03/20 09:09:38;;;;;;;10.75;6.90;;;5.00;75.40;;;;;;5029420;28;20490;-51
2021/03/20 09:12:20;;;;;;;11.38;7.15;;;5.10;76.60;;;;;;5019528;28;20501;-53
2021/03/20 09:14:47;;;;;;;10.93;6.70;;;5.10;76.20;;;;;;5028856;28;20037;-49
2021/03/20 09:17:22;;;;;;;12.40;6.97;;;5.30;76.70;;;;;;5038533;28;20041;-50
2021/03/20 09:19:53;;;;;;;12.90;7.03;;;5.30;76.70;;;;;;5030285;28;20111;-49
2021/03/20 09:22:22;;;;;;;10.38;6.97;;;5.40;76.70;;;;;;5041122;28;20076;-52
2021/03/20 09:24:58;;;;;;;12.50;6.90;;;5.60;75.80;;;;;;5020837;28;20045;-53
2021/03/20 09:28:01;;;;;;;9.43;6.97;;;5.70;76.30;;;;;;5027532;28;20037;-51
2021/03/20 09:30:46;;;;;;;9.40;6.63;;;5.80;75.00;;;;;;5014680;28;20415;-53
2021/03/20 09:33:27;;;;;;;11.82;6.75;;;5.90;74.90;;;;;;5021967;28;20033;-51
2021/03/20 09:35:57;;;;;;;11.27;6.90;;;5.90;74.60;;;;;;5020948;28;20029;-53
2021/03/20 09:38:35;;;;;;;12.40;6.60;;;6.00;73.40;;;;;;4993863;28;20040;-50
2021/03/20 09:41:07;;;;;;;10.35;6.32;;;6.10;73.90;;;;;;5000386;28;20262;-52
2021/03/20 09:43:44;;;;;;;8.90;5.43;;;6.20;73.00;;;;;;5011738;28;20120;-53
2021/03/20 09:46:41;;;;;;;10.63;5.95;;;6.30;71.80;;;;;;5014519;28;20060;-53
2021/03/20 09:49:07;;;;;;;11.60;6.10;;;6.30;70.70;;;;;;5009220;28;20050;-52
2021/03/20 09:51:52;;;;;;;9.38;5.13;;;6.30;70.70;;;;;;5015593;28;20045;-53
2021/03/20 09:54:35;;;;;;;9.95;5.75;;;6.30;69.20;;;;;;5026742;28;20033;-53
2021/03/20 09:57:28;;;;;;;;;;;6.40;69.90;;;;;;5021014;28;20049;-52
2021/03/20 09:59:53;;;;;;;7.15;4.70;;;6.40;69.70;;;;;;5018444;28;20023;-53
2021/03/20 10:02:18;;;;;;;8.90;5.25;;;6.40;69.80;;;;;;5023962;28;20041;-52
2021/03/20 10:04:57;;;;;;;10.18;5.57;;;6.30;69.50;;;;;;5022211;28;20048;-54
2021/03/20 10:07:23;;;;;;;11.40;5.70;;;6.30;70.80;;;;;;5024793;28;20053;-50
2021/03/20 10:10:01;;;;;;;9.13;6.00;;;6.30;70.90;;;;;;4999690;28;20064;-53
2021/03/20 10:12:47;;;;;;;9.35;6.03;;;6.40;69.90;;;;;;5023797;28;20069;-53
2021/03/20 10:15:16;;;;;;;11.73;6.53;;;6.50;70.70;;;;;;5023012;28;20045;-53
2021/03/20 10:18:20;;;;;;;10.82;6.65;;;6.60;70.20;;;;;;5030659;28;20042;-54
2021/03/20 10:20:52;;;;;;;12.77;7.28;;;6.60;70.00;;;;;;5021666;28;20042;-55
2021/03/20 10:23:54;;;;;;;11.97;6.93;;;6.70;71.30;;;;;;5024204;28;20495;-52
2021/03/20 10:26:25;;;;;;;11.38;6.45;;;6.70;70.20;;;;;;4979438;28;20506;-52
2021/03/20 10:28:56;;;;;;;9.82;5.88;;;6.80;70.80;;;;;;5029022;28;20050;-54
2021/03/20 10:31:23;;;;;;;13.13;6.72;;;6.80;70.30;;;;;;5024401;28;20044;-53
2021/03/20 10:34:00;;;;;;;10.05;6.88;;;6.70;69.60;;;;;;5005384;28;20050;-54
2021/03/20 10:36:42;;;;;;;10.38;6.68;;;6.80;70.10;;;;;;5022039;28;20152;-55
2021/03/20 10:39:33;;;;;;;11.40;6.78;;;7.00;68.10;;;;;;5023103;28;20486;-52
2021/03/20 10:42:06;;;;;;;10.70;6.00;;;7.00;67.40;;;;;;5020406;28;20495;-54
2021/03/20 10:44:39;;;;;;;13.18;6.53;;;7.20;67.70;;;;;;5023338;28;20096;-54
2021/03/20 10:47:20;;;;;;;10.30;6.03;;;7.30;67.10;;;;;;5021023;28;20041;-53
2021/03/20 10:49:53;;;;;;;8.88;5.78;;;7.40;67.70;;;;;;5025337;28;20053;-54
2021/03/20 10:52:21;;;;;;;8.63;5.68;;;7.50;66.90;;;;;;5018727;28;20484;-55
2021/03/20 10:54:53;;;;;;;9.43;5.70;;;7.50;66.40;;;;;;5030115;28;20041;-53
2021/03/20 10:57:29;;;;;;;8.93;6.05;;;7.60;65.70;;;;;;5007518;28;20040;-53
2021/03/20 10:59:56;;;;;;;9.70;5.82;;;7.60;66.10;;;;;;5024182;28;20044;-53
2021/03/20 11:02:31;;;;;;;10.27;6.05;;;7.70;66.10;;;;;;5033463;28;20052;-55
2021/03/20 11:05:21;;;;;;;7.13;5.05;;;7.70;65.90;;;;;;5027196;28;20040;-55
2021/03/20 11:08:17;;;;;;;9.38;6.05;;;7.80;66.70;;;;;;4996770;28;20046;-54
2021/03/20 11:10:45;;;;;;;9.73;6.40;;;7.90;67.10;;;;;;5024704;28;20117;-54
2021/03/20 11:13:17;;;;;;;11.45;6.75;;;7.90;66.60;;;;;;5029394;28;20103;-55
2021/03/20 11:15:45;;;;;;;11.45;6.88;;;7.80;66.50;;;;;;5033814;28;20132;-54
2021/03/20 11:18:30;;;;;;;10.48;6.82;;;7.80;67.10;;;;;;5014526;28;20037;-54
2021/03/20 11:20:56;;;;;;;12.80;7.22;;;8.00;67.40;;;;;;5029273;28;20502;-54
2021/03/20 11:23:29;;;;;;;10.23;6.88;;;8.00;67.50;;;;;;5028007;28;20061;-52
2021/03/20 11:25:55;;;;;;;11.57;6.75;;;8.20;68.10;;;;;;5009082;28;20564;-52
2021/03/20 11:28:36;;;;;;;11.32;6.97;;;8.20;68.00;;;;;;5030710;28;20045;-52
2021/03/20 11:31:03;;;;;;;11.50;7.25;;;8.30;67.30;;;;;;5028348;28;20052;-55
2021/03/20 11:33:33;;;;;;;9.90;6.50;;;8.20;67.20;;;;;;5023931;28;20041;-54
2021/03/20 11:36:03;;;;;;;12.80;7.00;;;8.10;66.60;;;;;;5024679;28;20409;-54
2021/03/20 11:38:29;;;;;;;10.57;7.00;;;8.00;67.40;;;;;;5030474;28;20553;-54
2021/03/20 11:40:54;;;;;;;12.15;7.35;;;8.00;67.90;;;;;;5027067;28;20069;-55
2021/03/20 11:43:30;;;;;;;12.18;7.47;;;8.00;68.60;;;;;;5029612;28;20558;-55
2021/03/20 11:46:21;;;;;;;11.70;7.15;;;8.00;69.00;;;;;;5009082;28;20046;-54
2021/03/20 11:48:57;;;;;;;9.50;6.75;;;8.00;67.70;;;;;;5016671;28;20076;-55
2021/03/20 11:51:36;;;;;;;13.32;7.85;;;8.00;69.20;;;;;;5027879;28;20053;-54
2021/03/20 11:54:38;;;;;;;12.02;8.05;;;8.10;68.40;;;;;;5031178;28;20046;-51
2021/03/20 11:57:21;;;;;;;11.18;7.18;;;8.00;68.30;;;;;;5020944;28;20061;-53
2021/03/20 11:59:49;;;;;;;11.82;7.60;;;8.00;68.50;;;;;;5020967;28;20494;-55
2021/03/20 12:02:24;;;;;;;12.57;7.18;;;8.00;68.20;;;;;;5020609;28;20516;-50
2021/03/20 12:05:10;;;;;;;10.60;7.50;;;8.00;68.50;;;;;;5018781;28;20053;-54
2021/03/20 12:07:36;;;;;;;11.75;7.53;;;8.00;69.30;;;;;;5017060;28;20076;-52
2021/03/20 12:10:31;;;;;;;9.70;6.72;;;8.00;68.90;;;;;;5005055;28;20061;-54
2021/03/20 12:12:57;;;;;;;11.75;7.25;;;8.10;68.90;;;;;;5002364;28;20053;-50
2021/03/20 12:15:28;;;;;;;12.07;6.70;;;8.10;68.30;;;;;;5023574;28;20498;-53
2021/03/20 12:17:56;;;;;;;12.18;7.38;;;8.20;69.10;;;;;;5029441;28;20041;-54
2021/03/20 12:20:25;;;;;;;11.02;6.70;;;8.20;68.60;;;;;;5022254;28;20095;-54
2021/03/20 12:22:54;;;;;;;11.75;7.05;;;8.20;68.10;;;;;;5016296;28;20041;-51
2021/03/20 12:25:23;;;;;;;9.48;6.32;;;8.10;68.70;;;;;;5019374;28;20041;-53
2021/03/20 12:27:52;;;;;;;11.85;7.47;;;8.20;68.00;;;;;;5018357;28;20042;-50
2021/03/20 12:30:26;;;;;;;11.95;7.22;;;8.20;68.90;;;;;;5017456;28;20042;-54
2021/03/20 12:32:54;;;;;;;11.82;6.97;;;8.10;68.90;;;;;;5001447;28;20060;-53
2021/03/20 12:35:20;;;;;;;10.32;7.07;;;8.10;69.40;;;;;;5024310;28;20057;-51
2021/03/20 12:37:48;;;;;;;10.77;7.32;;;8.10;69.90;;;;;;5045243;28;20465;-51
2021/03/20 12:40:18;;;;;;;9.73;6.78;;;8.10;70.00;;;;;;5033426;28;20080;-52
2021/03/20 12:42:44;;;;;;;9.35;6.38;;;8.10;70.10;;;;;;5034140;28;20045;-52
2021/03/20 12:45:18;;;;;;;12.10;6.40;;;8.10;70.10;;;;;;5030962;28;20041;-54
2021/03/20 12:47:44;;;;;;;9.93;6.63;;;8.10;69.90;;;;;;5020023;28;20038;-52
2021/03/20 12:50:10;;;;;;;9.50;6.53;;;8.20;70.20;;;;;;5025663;28;20034;-51
2021/03/20 12:52:36;;;;;;;11.93;6.82;;;8.10;69.30;;;;;;5028445;28;20053;-55
2021/03/20 12:55:04;;;;;;;8.02;6.22;;;8.10;69.60;;;;;;5011389;28;20441;-51
2021/03/20 12:57:35;;;;;;;9.48;6.68;;;8.10;69.80;;;;;;5002739;28;20042;-50
2021/03/20 13:00:07;;;;;;;10.75;6.10;;;8.00;69.90;;;;;;5013667;28;20044;-53
2021/03/20 13:02:32;;;;;;;9.00;6.57;;;8.00;69.70;;;;;;5022171;28;20044;-53
2021/03/20 13:04:58;;;;;;;10.02;6.40;;;8.00;70.10;;;;;;5015411;28;20308;-50
2021/03/20 13:07:24;;;;;;;10.27;6.90;;;8.00;70.20;;;;;;5023952;28;20045;-53
2021/03/20 13:09:50;;;;;;;13.90;7.13;;;8.00;70.90;;;;;;5029357;28;20033;-50
2021/03/20 13:12:17;;;;;;;12.70;7.57;;;8.00;71.20;;;;;;5022128;28;20040;-54
2021/03/20 13:14:43;;;;;;;11.93;7.82;;;8.00;71.10;;;;;;5019931;28;20129;-53
2021/03/20 13:17:10;;;;;;;12.60;8.15;;;7.90;70.90;;;;;;5014861;28;20143;-53
2021/03/20 13:19:40;;;;;;;12.25;7.90;;;7.90;71.30;;;;;;4998227;28;20042;-58
2021/03/20 13:22:07;;;;;;;13.00;9.30;;;7.90;71.60;;;;;;5016353;28;20050;-51
2021/03/20 13:24:34;;;;;;;13.85;7.97;;;7.80;72.10;;;;;;5016403;28;20061;-55
2021/03/20 13:27:01;;;;;;;13.20;8.23;;;8.10;73.00;;;;;;5006396;28;20045;-51
2021/03/20 13:29:27;;;;;;;11.63;8.05;;;7.70;73.50;;;;;;5019785;28;20172;-50
2021/03/20 13:31:53;;;;;;;14.52;8.85;;;7.70;73.70;;;;;;5019584;28;20597;-51